Accueil
METAR-TAF:

METAR-TAF

Aéroports :

Aérodrome de Samedan-Engadin

Saint-Moritz, Suisse

latitude: 46-32-03N, longitude: 9-53-03E, altitude: 1707 m

Observation

Le bulletin a été fait il y a 29 minutes, à 03:50 UTC
Vent 2 kt de direction variable
Température -8°C
Humidité 92%
Pression 1027 hPa
Visibilité 10 km ou plus

METAR: LSZS 270350Z AUTO VRB02KT 9999 NCD M08/M09 Q1027

Heure: 06:19 (04:19 UTC)

Prévision

Le bulletin a été fait il y a 13 heures et 54 minutes, à 14:25 UTC
Prévision valable du 26 à 15 UTC au 26 à 24 UTC
Vent 14 kt de nord-ouest avec des rafales jusqu'à 24 kt
Visibilité 10 km ou plus
Nuages épars à une hauteur de 5500 ft
Evoluant progressivement
du 26 à 17 UTC au 26 à 20 UTC
Vent 4 kt de nord-est
Visibilité 10 km ou plus
pas de nuages en-dessous de 1500 mètres et pas de cumulonimbus.

TAF: LSZS 261425Z 2615/2624 31014G24KT 9999 SCT055 TX10/2615Z BECMG 2617/2620 05004KT CAVOK

Observations et prévisions météorologiques de plus de 4000 aéroports (messages METAR et TAF).

Les stations disponibles sont représentées par des disques jaunes et rouges sur la carte.

Passer la souris dessus pour voir le nom de la station.

Cliquer dessus pour voir les observations et prévisions météorologiques.

Pour changer de carte: cliquez sur les boutons verts avec une croix noire pour zoomer, sur le bouton vert avec un tiret pour effectuer un zoom arrière, ou sur les flèches vertes pour les cartes adjacentes.


METAR-TAF: